createdAt,value
2018-07-03T00:00:33.375Z,16.66
2018-07-03T00:01:33.448Z,16.67
2018-07-03T00:02:33.322Z,16.63
2018-07-03T00:03:33.301Z,16.67
2018-07-03T00:04:33.279Z,16.67
2018-07-03T00:05:33.262Z,16.57
2018-07-03T00:06:33.233Z,16.65
2018-07-03T00:07:33.208Z,16.52
2018-07-03T00:08:33.184Z,16.59
2018-07-03T00:09:33.164Z,16.44
2018-07-03T00:10:33.149Z,16.37
2018-07-03T00:11:33.214Z,16.48
2018-07-03T00:12:33.101Z,16.45
2018-07-03T00:13:33.118Z,16.44
2018-07-03T00:14:33.050Z,16.41
2018-07-03T00:15:33.025Z,16.33
2018-07-03T00:16:33.008Z,16.27
2018-07-03T00:17:32.980Z,16.36
2018-07-03T00:18:32.956Z,16.30
2018-07-03T00:19:32.955Z,16.23
2018-07-03T00:20:32.910Z,16.36
2018-07-03T00:21:32.884Z,16.26
2018-07-03T00:22:32.873Z,16.14
2018-07-03T00:23:32.880Z,16.08
2018-07-03T00:24:32.831Z,16.06
2018-07-03T00:25:32.903Z,16.06
2018-07-03T00:26:32.785Z,16.04
2018-07-03T00:27:32.813Z,16.06
2018-07-03T00:28:32.723Z,16.10
2018-07-03T00:29:32.720Z,15.98
2018-07-03T00:30:32.686Z,15.99
2018-07-03T00:31:32.739Z,15.92
2018-07-03T00:32:32.634Z,15.92
2018-07-03T00:33:32.645Z,15.93
2018-07-03T00:34:32.594Z,15.85
2018-07-03T00:35:32.659Z,15.84
2018-07-03T00:36:32.549Z,15.92
2018-07-03T00:37:32.571Z,15.76
2018-07-03T00:38:32.506Z,15.74
2018-07-03T00:39:32.580Z,15.80
2018-07-03T00:40:32.471Z,15.77
2018-07-03T00:41:32.497Z,15.77
2018-07-03T00:42:32.405Z,15.77
2018-07-03T00:43:32.407Z,15.70
2018-07-03T00:44:32.365Z,15.66
2018-07-03T00:45:32.420Z,15.62
2018-07-03T00:46:32.318Z,15.56
2018-07-03T00:47:32.331Z,15.56
2018-07-03T00:48:32.271Z,15.60
2018-07-03T00:49:32.348Z,15.52
2018-07-03T00:50:32.225Z,15.58
2018-07-03T00:51:32.257Z,15.48
2018-07-03T00:52:32.180Z,15.55
2018-07-03T00:53:32.168Z,15.49
2018-07-03T00:54:32.132Z,15.44
2018-07-03T00:55:32.200Z,15.44
2018-07-03T00:56:32.084Z,15.38
2018-07-03T00:57:33.112Z,15.41
2018-07-03T00:58:32.041Z,15.51
2018-07-03T00:59:32.105Z,15.35
2018-07-03T01:00:32.009Z,15.38
2018-07-03T01:01:31.970Z,15.35
2018-07-03T01:02:31.948Z,15.31
2018-07-03T01:03:31.927Z,15.35
2018-07-03T01:04:31.917Z,15.30
2018-07-03T01:05:31.942Z,15.28
2018-07-03T01:06:31.861Z,15.22
2018-07-03T01:07:33.413Z,15.23
2018-07-03T01:08:31.832Z,15.27
2018-07-03T01:09:31.797Z,15.18
2018-07-03T01:10:31.846Z,15.23
2018-07-03T01:11:31.744Z,15.16
2018-07-03T01:12:31.718Z,15.13
2018-07-03T01:13:31.764Z,15.19
2018-07-03T01:14:31.668Z,15.03
2018-07-03T01:15:31.676Z,15.07
2018-07-03T01:16:31.623Z,15.05
2018-07-03T01:17:31.627Z,15.11
2018-07-03T01:18:31.594Z,15.07
2018-07-03T01:19:31.557Z,15.01
2018-07-03T01:20:31.613Z,15.03
2018-07-03T01:21:31.510Z,15.05
2018-07-03T01:22:31.479Z,14.98
2018-07-03T01:23:31.526Z,15.00
2018-07-03T01:24:31.448Z,14.94
2018-07-03T01:25:31.447Z,15.00
2018-07-03T01:26:31.390Z,14.83
2018-07-03T01:27:31.366Z,14.95
2018-07-03T01:28:31.361Z,14.87
2018-07-03T01:29:31.318Z,14.91
2018-07-03T01:30:31.371Z,14.85
2018-07-03T01:31:31.274Z,14.97
2018-07-03T01:32:31.286Z,14.93
2018-07-03T01:33:31.236Z,14.91
2018-07-03T01:34:31.293Z,14.85
2018-07-03T01:35:31.183Z,14.86
2018-07-03T01:36:31.208Z,14.71
2018-07-03T01:37:31.133Z,14.83
2018-07-03T01:38:31.218Z,14.90
2018-07-03T01:39:31.106Z,14.82
2018-07-03T01:40:31.129Z,14.75
2018-07-03T01:41:31.031Z,14.80
2018-07-03T01:42:31.044Z,14.85
2018-07-03T01:43:30.993Z,14.82
2018-07-03T01:44:31.055Z,14.80
2018-07-03T01:45:30.951Z,14.86
2018-07-03T01:46:32.004Z,14.90
2018-07-03T01:47:30.897Z,14.94
2018-07-03T01:48:30.978Z,14.83
2018-07-03T01:49:30.857Z,14.91
2018-07-03T01:50:30.832Z,14.86
2018-07-03T01:51:30.901Z,14.71
2018-07-03T01:52:30.778Z,14.69
2018-07-03T01:53:30.811Z,14.69
2018-07-03T01:54:30.731Z,14.71
2018-07-03T01:55:30.727Z,14.82
2018-07-03T01:56:30.689Z,14.72
2018-07-03T01:57:30.799Z,14.64
2018-07-03T01:58:30.633Z,14.67
2018-07-03T01:59:30.651Z,14.63
2018-07-03T02:00:30.610Z,14.66
2018-07-03T02:01:31.690Z,14.63
2018-07-03T02:02:30.540Z,14.56
2018-07-03T02:03:30.571Z,14.67
2018-07-03T02:04:30.497Z,14.69
2018-07-03T02:05:31.501Z,14.63
2018-07-03T02:06:30.459Z,14.63
2018-07-03T02:07:30.507Z,14.56
2018-07-03T02:08:30.410Z,14.56
2018-07-03T02:09:30.404Z,14.49
2018-07-03T02:10:30.362Z,14.54
2018-07-03T02:11:30.419Z,14.53
2018-07-03T02:12:30.315Z,14.46
2018-07-03T02:13:30.338Z,14.46
2018-07-03T02:14:30.266Z,14.48
2018-07-03T02:15:30.342Z,14.46
2018-07-03T02:16:30.217Z,14.42
2018-07-03T02:17:30.198Z,14.42
2018-07-03T02:18:30.170Z,14.45
2018-07-03T02:19:30.155Z,14.35
2018-07-03T02:20:30.216Z,14.35
2018-07-03T02:21:30.090Z,14.36
2018-07-03T02:22:30.122Z,14.36
2018-07-03T02:23:30.056Z,14.34
2018-07-03T02:24:30.131Z,14.38
2018-07-03T02:25:30.011Z,14.31
2018-07-03T02:26:29.996Z,14.36
2018-07-03T02:27:29.964Z,14.31
2018-07-03T02:28:29.963Z,14.36
2018-07-03T02:29:29.922Z,14.23
2018-07-03T02:30:29.977Z,14.13
2018-07-03T02:31:29.901Z,14.20
2018-07-03T02:32:29.844Z,14.12
2018-07-03T02:33:29.817Z,14.17
2018-07-03T02:34:29.900Z,14.19
2018-07-03T02:35:29.768Z,14.19
2018-07-03T02:36:30.833Z,14.23
2018-07-03T02:37:29.727Z,14.23
2018-07-03T02:38:29.726Z,14.11
2018-07-03T02:39:29.676Z,14.11
2018-07-03T02:40:30.760Z,14.17
2018-07-03T02:41:29.641Z,14.26
2018-07-03T02:42:29.647Z,14.06
2018-07-03T02:43:29.582Z,14.13
2018-07-03T02:44:29.559Z,14.12
2018-07-03T02:45:29.563Z,14.08
2018-07-03T02:46:29.514Z,14.26
2018-07-03T02:47:30.498Z,14.23
2018-07-03T02:48:29.464Z,14.12
2018-07-03T02:49:29.499Z,14.13
2018-07-03T02:50:29.415Z,14.11
2018-07-03T02:51:30.472Z,14.06
2018-07-03T02:52:29.380Z,14.08
2018-07-03T02:53:29.419Z,14.12
2018-07-03T02:54:29.335Z,14.01
2018-07-03T02:55:29.329Z,13.98
2018-07-03T02:56:29.287Z,13.99
2018-07-03T02:57:29.346Z,13.99
2018-07-03T02:58:29.223Z,14.02
2018-07-03T02:59:30.287Z,13.96
2018-07-03T03:00:29.199Z,14.09
2018-07-03T03:01:30.190Z,14.09
2018-07-03T03:02:29.147Z,14.02
2018-07-03T03:03:30.203Z,14.13
2018-07-03T03:04:29.100Z,14.08
2018-07-03T03:05:30.112Z,14.12
2018-07-03T03:06:29.036Z,13.99
2018-07-03T03:07:29.117Z,13.99
2018-07-03T03:08:28.988Z,14.11
2018-07-03T03:09:29.024Z,14.12
2018-07-03T03:10:28.947Z,14.13
2018-07-03T03:11:29.029Z,14.13
2018-07-03T03:12:28.909Z,13.98
2018-07-03T03:13:28.945Z,14.05
2018-07-03T03:14:28.848Z,14.02
2018-07-03T03:15:28.856Z,14.12
2018-07-03T03:16:28.807Z,14.06
2018-07-03T03:17:29.886Z,14.05
2018-07-03T03:18:28.755Z,14.02
2018-07-03T03:19:29.797Z,14.11
2018-07-03T03:20:28.706Z,14.01
2018-07-03T03:21:28.793Z,14.01
2018-07-03T03:22:28.697Z,13.94
2018-07-03T03:23:29.735Z,13.96
2018-07-03T03:24:28.614Z,13.99
2018-07-03T03:25:28.618Z,13.98
2018-07-03T03:26:28.564Z,13.99
2018-07-03T03:27:28.561Z,13.94
2018-07-03T03:28:34.456Z,13.93
2018-07-03T03:29:28.503Z,13.91
2018-07-03T03:30:29.587Z,13.88
2018-07-03T03:31:28.453Z,13.86
2018-07-03T03:32:30.442Z,13.91
2018-07-03T03:33:28.402Z,13.88
2018-07-03T03:34:28.452Z,13.87
2018-07-03T03:35:28.359Z,13.81
2018-07-03T03:36:28.369Z,13.94
2018-07-03T03:37:28.310Z,13.75
2018-07-03T03:38:29.398Z,13.73
2018-07-03T03:39:28.275Z,13.76
2018-07-03T03:40:28.303Z,13.72
2018-07-03T03:41:28.218Z,13.69
2018-07-03T03:42:28.238Z,13.65
2018-07-03T03:43:28.206Z,13.71
2018-07-03T03:44:28.144Z,13.66
2018-07-03T03:45:28.225Z,13.65
2018-07-03T03:46:28.094Z,13.69
2018-07-03T03:47:28.143Z,13.65
2018-07-03T03:48:28.072Z,13.68
2018-07-03T03:49:28.053Z,13.66
2018-07-03T03:50:27.999Z,13.65
2018-07-03T03:51:28.069Z,13.72
2018-07-03T03:52:27.952Z,13.73
2018-07-03T03:53:27.979Z,13.75
2018-07-03T03:54:27.922Z,13.76
2018-07-03T03:55:27.998Z,13.83
2018-07-03T03:56:27.855Z,13.84
2018-07-03T03:57:27.829Z,13.87
2018-07-03T03:58:27.905Z,13.83
2018-07-03T03:59:27.792Z,13.90
2018-07-03T04:00:27.829Z,13.87
2018-07-03T04:01:27.742Z,13.98
2018-07-03T04:02:27.850Z,13.94
2018-07-03T04:03:27.696Z,13.94
2018-07-03T04:04:27.682Z,13.93
2018-07-03T04:05:27.757Z,13.93
2018-07-03T04:06:27.620Z,13.91
2018-07-03T04:07:27.681Z,13.98
2018-07-03T04:08:27.569Z,13.93
2018-07-03T04:09:27.705Z,13.94
2018-07-03T04:10:27.544Z,13.93
2018-07-03T04:11:27.606Z,13.94
2018-07-03T04:12:27.495Z,13.94
2018-07-03T04:13:27.497Z,14.08
2018-07-03T04:14:27.440Z,14.06
2018-07-03T04:15:27.513Z,14.04
2018-07-03T04:16:27.391Z,13.99
2018-07-03T04:17:29.483Z,14.08
2018-07-03T04:18:27.349Z,14.01
2018-07-03T04:19:27.422Z,14.02
2018-07-03T04:20:27.296Z,13.99
2018-07-03T04:21:27.343Z,14.02
2018-07-03T04:22:27.253Z,14.01
2018-07-03T04:23:27.248Z,13.96
2018-07-03T04:24:27.221Z,14.01
2018-07-03T04:25:27.184Z,14.05
2018-07-03T04:26:27.164Z,14.05
2018-07-03T04:27:27.132Z,14.09
2018-07-03T04:28:27.120Z,14.11
2018-07-03T04:29:27.201Z,14.16
2018-07-03T04:30:27.133Z,14.12
2018-07-03T04:31:27.098Z,14.11
2018-07-03T04:32:27.016Z,14.21
2018-07-03T04:33:27.038Z,14.17
2018-07-03T04:34:26.968Z,14.20
2018-07-03T04:35:26.944Z,14.11
2018-07-03T04:36:26.924Z,14.19
2018-07-03T04:37:26.890Z,14.09
2018-07-03T04:38:26.878Z,14.09
2018-07-03T04:39:26.863Z,14.23
2018-07-03T04:40:26.839Z,14.19
2018-07-03T04:41:26.900Z,14.24
2018-07-03T04:42:26.780Z,14.16
2018-07-03T04:43:26.755Z,14.29
2018-07-03T04:44:26.725Z,14.34
2018-07-03T04:45:26.800Z,14.31
2018-07-03T04:46:26.691Z,14.35
2018-07-03T04:47:26.655Z,14.39
2018-07-03T04:48:26.638Z,14.48
2018-07-03T04:49:26.617Z,14.42
2018-07-03T04:50:26.638Z,14.41
2018-07-03T04:51:26.587Z,14.56
2018-07-03T04:52:26.629Z,14.45
2018-07-03T04:53:26.595Z,14.60
2018-07-03T04:54:26.546Z,14.61
2018-07-03T04:55:26.468Z,14.57
2018-07-03T04:56:26.561Z,14.61
2018-07-03T04:57:26.424Z,14.57
2018-07-03T04:58:26.516Z,14.72
2018-07-03T04:59:26.377Z,14.80
2018-07-03T05:00:26.370Z,14.82
2018-07-03T05:01:26.391Z,14.83
2018-07-03T05:02:26.310Z,14.93
2018-07-03T05:03:26.320Z,14.97
2018-07-03T05:04:26.261Z,15.04
2018-07-03T05:05:26.244Z,15.20
2018-07-03T05:06:26.208Z,15.13
2018-07-03T05:07:26.244Z,15.23
2018-07-03T05:08:26.158Z,15.20
2018-07-03T05:09:26.137Z,15.25
2018-07-03T05:10:26.139Z,15.40
2018-07-03T05:11:26.100Z,15.53
2018-07-03T05:12:26.200Z,15.51
2018-07-03T05:13:26.056Z,15.66
2018-07-03T05:14:26.050Z,15.55
2018-07-03T05:16:12.284Z,15.70
2018-07-03T05:17:12.105Z,15.73
2018-07-03T05:18:12.058Z,15.74
2018-07-03T05:19:12.073Z,15.71
2018-07-03T05:20:12.022Z,15.86
2018-07-03T05:21:11.988Z,15.96
2018-07-03T05:22:11.970Z,16.11
2018-07-03T05:23:12.003Z,16.06
2018-07-03T05:24:11.928Z,16.17
2018-07-03T05:25:12.012Z,16.29
2018-07-03T05:26:11.863Z,16.26
2018-07-03T05:27:11.851Z,16.42
2018-07-03T05:28:11.821Z,16.37
2018-07-03T05:29:11.914Z,16.37
2018-07-03T05:30:11.785Z,16.44
2018-07-03T05:31:11.758Z,16.41
2018-07-03T05:32:11.774Z,16.51
2018-07-03T05:33:11.744Z,16.60
2018-07-03T05:34:11.703Z,16.54
2018-07-03T05:35:11.666Z,16.65
2018-07-03T05:36:11.633Z,16.62
2018-07-03T05:37:11.656Z,16.75
2018-07-03T05:38:11.595Z,16.75
2018-07-03T05:39:11.568Z,16.78
2018-07-03T05:40:11.550Z,16.84
2018-07-03T05:41:11.528Z,16.90
2018-07-03T05:42:11.494Z,16.90
2018-07-03T05:43:11.473Z,16.82
2018-07-03T05:44:11.444Z,16.84
2018-07-03T05:45:11.433Z,16.99
2018-07-03T05:46:11.396Z,17.00
2018-07-03T05:47:11.379Z,17.03
2018-07-03T05:48:11.376Z,17.09
2018-07-03T05:49:11.331Z,16.95
2018-07-03T05:50:11.303Z,17.02
2018-07-03T05:51:11.312Z,16.95
2018-07-03T05:52:11.277Z,17.02
2018-07-03T05:53:11.278Z,17.10
2018-07-03T05:54:11.230Z,17.18
2018-07-03T05:55:11.331Z,17.03
2018-07-03T05:56:11.216Z,17.18
2018-07-03T05:57:11.213Z,17.24
2018-07-03T05:58:11.180Z,17.36
2018-07-03T05:59:11.257Z,17.35
2018-07-03T06:00:11.243Z,17.45
2018-07-03T06:01:11.211Z,17.51
2018-07-03T06:02:11.014Z,17.54
2018-07-03T06:03:11.043Z,17.57
2018-07-03T06:04:10.985Z,17.55
2018-07-03T06:05:11.974Z,17.63
2018-07-03T06:06:10.925Z,17.68
2018-07-03T06:07:10.961Z,17.65
2018-07-03T06:08:10.886Z,17.68
2018-07-03T06:09:10.910Z,17.66
2018-07-03T06:10:10.830Z,17.79
2018-07-03T06:11:10.886Z,17.77
2018-07-03T06:12:10.779Z,17.80
2018-07-03T06:13:10.794Z,17.91
2018-07-03T06:14:10.744Z,17.87
2018-07-03T06:15:10.827Z,17.96
2018-07-03T06:16:10.704Z,17.91
2018-07-03T06:17:56.916Z,17.92
2018-07-03T06:18:56.846Z,17.94
2018-07-03T06:19:56.818Z,17.95
2018-07-03T06:20:56.802Z,18.05
2018-07-03T06:21:56.776Z,18.09
2018-07-03T06:22:56.758Z,18.09
2018-07-03T06:23:56.731Z,18.23
2018-07-03T06:24:56.723Z,18.17
2018-07-03T06:25:56.678Z,18.16
2018-07-03T06:26:56.663Z,18.23
2018-07-03T06:27:56.655Z,18.16
2018-07-03T06:28:56.725Z,18.21
2018-07-03T06:29:56.626Z,18.25
2018-07-03T06:30:56.584Z,18.21
2018-07-03T06:31:56.531Z,18.26
2018-07-03T06:32:56.518Z,18.32
2018-07-03T06:33:56.551Z,18.46
2018-07-03T06:34:56.469Z,18.60
2018-07-03T06:35:56.446Z,18.66
2018-07-03T06:36:56.429Z,18.75
2018-07-03T06:37:56.388Z,18.87
2018-07-03T06:38:56.365Z,18.90
2018-07-03T06:39:56.355Z,18.93
2018-07-03T06:40:56.321Z,19.05
2018-07-03T06:41:56.309Z,18.93
2018-07-03T06:42:56.272Z,19.15
2018-07-03T06:43:56.265Z,19.13
2018-07-03T06:44:56.284Z,19.13
2018-07-03T06:45:56.196Z,19.10
2018-07-03T06:46:56.248Z,19.17
2018-07-03T06:47:56.154Z,19.21
2018-07-03T06:48:56.133Z,19.20
2018-07-03T06:49:56.104Z,19.16
2018-07-03T06:50:56.081Z,19.25
2018-07-03T06:51:56.061Z,19.28
2018-07-03T06:52:56.101Z,19.28
2018-07-03T06:53:56.002Z,19.30
2018-07-03T06:54:56.005Z,19.28
2018-07-03T06:55:55.970Z,19.31
2018-07-03T06:56:55.939Z,19.34
2018-07-03T06:57:55.940Z,19.35
2018-07-03T06:58:55.900Z,19.39
2018-07-03T06:59:55.868Z,19.46
2018-07-03T07:00:55.846Z,19.50
2018-07-03T07:01:56.061Z,19.52
2018-07-03T07:02:55.794Z,19.62
2018-07-03T07:03:55.797Z,19.57
2018-07-03T07:04:55.765Z,19.65
2018-07-03T07:05:55.731Z,19.71
2018-07-03T07:06:55.716Z,19.80
2018-07-03T07:07:55.679Z,20.01
2018-07-03T07:08:55.711Z,20.26
2018-07-03T07:09:55.636Z,20.41
2018-07-03T07:10:55.609Z,20.50
2018-07-03T07:11:55.605Z,20.53
2018-07-03T07:12:55.561Z,20.38
2018-07-03T07:13:55.544Z,20.44
2018-07-03T07:14:55.585Z,20.44
2018-07-03T07:15:55.486Z,20.40
2018-07-03T07:16:55.579Z,20.33
2018-07-03T07:17:55.445Z,20.34
2018-07-03T07:18:55.550Z,20.20
2018-07-03T07:19:55.393Z,20.13
2018-07-03T07:20:55.382Z,20.13
2018-07-03T07:21:55.409Z,20.27
2018-07-03T07:22:55.315Z,20.33
2018-07-03T07:23:55.330Z,20.27
2018-07-03T07:24:55.277Z,20.41
2018-07-03T07:25:55.332Z,20.50
2018-07-03T07:26:55.269Z,20.60
2018-07-03T07:27:55.202Z,20.56
2018-07-03T07:28:55.175Z,20.63
2018-07-03T07:29:55.257Z,20.63
2018-07-03T07:30:55.125Z,20.61
2018-07-03T07:31:55.171Z,20.75
2018-07-03T07:32:55.090Z,20.71
2018-07-03T07:33:55.061Z,20.81
2018-07-03T07:34:55.043Z,20.71
2018-07-03T07:35:55.092Z,20.76
2018-07-03T07:36:54.992Z,20.76
2018-07-03T07:37:54.968Z,20.83
2018-07-03T07:38:54.945Z,20.85
2018-07-03T07:39:54.927Z,20.93
2018-07-03T07:40:54.895Z,21.06
2018-07-03T07:41:54.872Z,21.08
2018-07-03T07:42:54.881Z,21.09
2018-07-03T07:43:54.820Z,21.13
2018-07-03T07:44:54.806Z,21.18
2018-07-03T07:45:54.786Z,21.22
2018-07-03T07:46:54.739Z,21.24
2018-07-03T07:48:40.406Z,21.34
2018-07-03T07:49:40.342Z,21.28
2018-07-03T07:50:40.261Z,21.42
2018-07-03T07:51:40.301Z,21.46
2018-07-03T07:52:40.274Z,21.43
2018-07-03T07:53:40.265Z,21.46
2018-07-03T07:54:40.165Z,21.53
2018-07-03T07:55:40.147Z,21.46
2018-07-03T07:56:40.127Z,21.56
2018-07-03T07:57:40.108Z,21.63
2018-07-03T07:58:40.070Z,21.58
2018-07-03T07:59:40.052Z,21.70
2018-07-03T08:00:40.020Z,21.59
2018-07-03T08:01:40.010Z,21.70
2018-07-03T08:02:39.981Z,21.68
2018-07-03T08:03:39.971Z,21.64
2018-07-03T08:04:39.953Z,21.79
2018-07-03T08:05:39.906Z,21.75
2018-07-03T08:06:39.948Z,21.77
2018-07-03T08:07:39.852Z,21.77
2018-07-03T08:08:39.851Z,21.99
2018-07-03T08:09:39.804Z,22.05
2018-07-03T08:10:40.783Z,22.08
2018-07-03T08:11:39.754Z,22.05
2018-07-03T08:12:39.742Z,22.06
2018-07-03T08:13:39.729Z,22.12
2018-07-03T08:14:39.687Z,22.06
2018-07-03T08:15:39.658Z,22.02
2018-07-03T08:16:39.642Z,22.04
2018-07-03T08:17:39.610Z,22.14
2018-07-03T08:18:39.604Z,22.14
2018-07-03T08:19:39.580Z,22.24
2018-07-03T08:20:40.584Z,22.19
2018-07-03T08:21:39.522Z,22.27
2018-07-03T08:22:40.503Z,22.27
2018-07-03T08:23:39.477Z,22.35
2018-07-03T08:24:39.456Z,22.27
2018-07-03T08:25:39.425Z,22.31
2018-07-03T08:26:39.460Z,22.36
2018-07-03T08:27:39.382Z,22.48
2018-07-03T08:28:39.355Z,22.51
2018-07-03T08:29:39.319Z,22.49
2018-07-03T08:30:40.299Z,22.67
2018-07-03T08:31:39.280Z,22.66
2018-07-03T08:32:43.834Z,22.70
2018-07-03T08:33:39.230Z,22.78
2018-07-03T08:34:40.212Z,22.75
2018-07-03T08:35:39.205Z,22.78
2018-07-03T08:36:39.163Z,22.76
2018-07-03T08:37:39.139Z,22.88
2018-07-03T08:38:39.120Z,22.86
2018-07-03T08:39:39.094Z,22.93
2018-07-03T08:40:39.065Z,22.85
2018-07-03T08:41:39.053Z,22.89
2018-07-03T08:42:43.866Z,22.99
2018-07-03T08:43:39.002Z,23.07
2018-07-03T08:44:38.995Z,23.11
2018-07-03T08:45:38.950Z,23.26
2018-07-03T08:46:38.928Z,23.16
2018-07-03T08:47:38.900Z,23.29
2018-07-03T08:48:38.886Z,23.22
2018-07-03T08:49:38.852Z,23.29
2018-07-03T08:50:38.830Z,23.26
2018-07-03T08:51:38.817Z,23.32
2018-07-03T08:52:39.782Z,23.39
2018-07-03T08:53:38.760Z,23.37
2018-07-03T08:54:38.821Z,23.45
2018-07-03T08:55:38.705Z,23.49
2018-07-03T08:56:38.731Z,23.68
2018-07-03T08:57:38.665Z,23.71
2018-07-03T08:58:39.751Z,23.68
2018-07-03T08:59:38.615Z,23.86
2018-07-03T09:00:38.634Z,23.86
2018-07-03T09:08:30.604Z,24.31
2018-07-03T09:09:28.987Z,24.31
2018-07-03T09:10:28.949Z,24.39
2018-07-03T09:11:28.975Z,24.31
2018-07-03T09:12:28.919Z,24.31
2018-07-03T09:13:28.888Z,24.34
2018-07-03T09:14:28.875Z,24.36
2018-07-03T09:15:28.865Z,24.46
2018-07-03T09:16:28.818Z,24.37
2018-07-03T09:17:28.787Z,24.29
2018-07-03T09:18:28.764Z,24.36
2018-07-03T09:19:28.736Z,24.46
2018-07-03T09:20:28.752Z,24.49
2018-07-03T09:21:28.691Z,24.71
2018-07-03T09:22:28.675Z,24.94
2018-07-03T09:23:28.744Z,25.02
2018-07-03T09:24:28.629Z,25.07
2018-07-03T09:25:28.620Z,24.98
2018-07-03T09:26:28.576Z,25.08
2018-07-03T09:27:28.554Z,25.11
2018-07-03T09:28:28.538Z,25.19
2018-07-03T09:29:28.508Z,25.24
2018-07-03T09:30:28.573Z,25.29
2018-07-03T09:31:28.529Z,25.39
2018-07-03T09:32:28.455Z,25.57
2018-07-03T09:33:28.425Z,25.53
2018-07-03T09:34:28.420Z,25.64
2018-07-03T09:35:28.517Z,25.75
2018-07-03T09:36:28.503Z,25.81
2018-07-03T09:37:28.329Z,25.91
2018-07-03T09:38:28.305Z,25.97
2018-07-03T09:39:28.288Z,26.08
2018-07-03T09:40:28.264Z,26.11
2018-07-03T09:41:28.239Z,26.06
2018-07-03T09:42:28.282Z,26.17
2018-07-03T09:43:28.196Z,26.03
2018-07-03T09:44:28.174Z,26.16
2018-07-03T09:45:28.191Z,26.08
2018-07-03T09:46:28.259Z,26.12
2018-07-03T09:47:28.109Z,25.93
2018-07-03T09:48:28.091Z,25.89
2018-07-03T09:49:28.122Z,25.85
2018-07-03T09:50:28.045Z,25.86
2018-07-03T09:51:28.037Z,25.79
2018-07-03T09:52:28.071Z,26.03
2018-07-03T09:53:27.983Z,26.13
2018-07-03T09:54:27.952Z,26.35
2018-07-03T09:55:27.917Z,26.39
2018-07-03T09:56:27.965Z,26.35
2018-07-03T09:57:27.909Z,26.46
2018-07-03T09:59:15.391Z,26.60
2018-07-03T10:00:15.337Z,26.69
2018-07-03T10:01:15.301Z,26.29
2018-07-03T10:02:15.280Z,26.34
2018-07-03T10:03:15.258Z,26.19
2018-07-03T10:04:15.246Z,26.13
2018-07-03T10:05:15.210Z,25.96
2018-07-03T10:06:15.249Z,25.96
2018-07-03T10:07:15.170Z,25.97
2018-07-03T10:08:15.256Z,25.96
2018-07-03T10:09:15.119Z,26.04
2018-07-03T10:10:15.206Z,26.09
2018-07-03T10:11:15.072Z,26.27
2018-07-03T10:12:15.102Z,26.44
2018-07-03T10:13:15.025Z,26.61
2018-07-03T10:14:15.094Z,26.73
2018-07-03T10:15:15.017Z,26.84
2018-07-03T10:16:15.046Z,27.01
2018-07-03T10:17:14.929Z,27.15
2018-07-03T10:18:15.063Z,27.13
2018-07-03T10:19:15.001Z,26.98
2018-07-03T10:20:14.865Z,26.91
2018-07-03T10:21:14.839Z,26.97
2018-07-03T10:22:14.822Z,27.03
2018-07-03T10:23:14.834Z,27.06
2018-07-03T10:24:14.898Z,27.38
2018-07-03T10:25:14.961Z,27.39
2018-07-03T10:26:15.038Z,27.55
2018-07-03T10:27:15.032Z,27.53
2018-07-03T10:28:14.689Z,27.43
2018-07-03T10:29:14.667Z,27.28
2018-07-03T10:30:14.640Z,27.12
2018-07-03T10:31:14.649Z,26.93
2018-07-03T10:32:14.685Z,26.83
2018-07-03T10:33:14.582Z,26.84
2018-07-03T10:34:14.628Z,26.75
2018-07-03T10:35:14.584Z,26.78
2018-07-03T10:36:14.538Z,26.66
2018-07-03T10:37:14.546Z,26.65
2018-07-03T10:39:01.481Z,26.54
2018-07-03T10:40:01.440Z,26.78
2018-07-03T10:41:01.504Z,26.66
2018-07-03T10:42:01.451Z,26.72
2018-07-03T10:43:01.394Z,26.66
2018-07-03T10:44:01.352Z,26.57
2018-07-03T10:45:01.321Z,26.51
2018-07-03T10:46:01.321Z,26.51
2018-07-03T10:47:01.376Z,26.53
2018-07-03T10:48:01.256Z,26.47
2018-07-03T10:49:01.387Z,26.51
2018-07-03T10:50:01.246Z,26.56
2018-07-03T10:51:01.290Z,26.42
2018-07-03T10:52:01.164Z,26.44
2018-07-03T10:53:02.248Z,26.49
2018-07-03T10:54:01.119Z,26.57
2018-07-03T10:55:01.317Z,26.66
2018-07-03T10:56:01.074Z,26.61
2018-07-03T10:57:02.276Z,26.64
2018-07-03T10:58:01.074Z,26.65
2018-07-03T10:59:01.182Z,26.56
2018-07-03T11:00:00.987Z,26.76
2018-07-03T11:01:01.056Z,26.87
2018-07-03T11:02:00.960Z,26.79
2018-07-03T11:03:01.072Z,26.83
2018-07-03T11:04:00.901Z,26.84
2018-07-03T11:05:01.004Z,26.94
2018-07-03T11:06:00.867Z,26.96
2018-07-03T11:07:01.051Z,27.03
2018-07-03T11:08:00.817Z,26.94
2018-07-03T11:09:00.907Z,26.86
2018-07-03T11:10:00.787Z,26.68
2018-07-03T11:11:00.828Z,26.64
2018-07-03T11:12:00.728Z,26.76
2018-07-03T11:13:01.892Z,26.72
2018-07-03T11:14:00.749Z,26.90
2018-07-03T11:15:01.783Z,26.97
2018-07-03T11:16:00.655Z,26.98
2018-07-03T11:17:00.764Z,27.24
2018-07-03T11:18:00.608Z,27.40
2018-07-03T11:19:46.399Z,27.05
2018-07-03T11:20:46.345Z,27.09
2018-07-03T11:21:46.283Z,27.16
2018-07-03T11:22:46.353Z,27.16
2018-07-03T11:23:46.232Z,27.38
2018-07-03T11:24:46.265Z,27.52
2018-07-03T11:25:46.161Z,27.61
2018-07-03T11:26:46.291Z,27.72
2018-07-03T11:27:46.129Z,27.71
2018-07-03T11:28:46.198Z,27.84
2018-07-03T11:29:46.073Z,27.76
2018-07-03T11:30:48.141Z,27.77
2018-07-03T11:31:46.034Z,27.76
2018-07-03T11:32:47.102Z,27.90
2018-07-03T11:33:46.025Z,28.06
2018-07-03T11:34:46.094Z,28.25
2018-07-03T11:35:45.937Z,28.64
2018-07-03T11:36:48.059Z,28.74
2018-07-03T11:37:46.038Z,28.97
2018-07-03T11:38:46.017Z,29.29
2018-07-03T11:39:45.892Z,29.32
2018-07-03T11:40:45.935Z,29.41
2018-07-03T11:41:45.819Z,29.47
2018-07-03T11:42:45.841Z,29.44
2018-07-03T11:43:45.782Z,29.44
2018-07-03T11:44:45.857Z,29.42
2018-07-03T11:45:45.724Z,29.26
2018-07-03T11:46:45.784Z,29.14
2018-07-03T11:47:45.675Z,29.29
2018-07-03T11:48:45.836Z,29.48
2018-07-03T11:49:45.653Z,29.47
2018-07-03T11:50:45.637Z,28.94
2018-07-03T11:51:45.606Z,28.50
2018-07-03T11:52:45.578Z,28.17
2018-07-03T11:53:45.561Z,28.03
2018-07-03T11:54:45.552Z,27.91
2018-07-03T11:55:45.508Z,27.91
2018-07-03T11:56:45.517Z,28.05
2018-07-03T11:57:45.464Z,28.11
2018-07-03T11:58:45.451Z,28.43
2018-07-03T11:59:45.424Z,28.51
2018-07-03T12:00:45.416Z,28.46
2018-07-03T12:01:45.492Z,28.46
2018-07-03T12:02:46.382Z,28.30
2018-07-03T12:03:45.344Z,28.40
2018-07-03T12:04:45.337Z,28.35
2018-07-03T12:05:45.286Z,28.11
2018-07-03T12:06:45.278Z,28.02
2018-07-03T12:07:45.250Z,27.99
2018-07-03T12:08:45.234Z,27.90
2018-07-03T12:09:45.217Z,27.83
2018-07-03T12:10:45.210Z,27.78
2018-07-03T12:11:45.161Z,27.88
2018-07-03T12:12:45.143Z,27.96
2018-07-03T12:13:45.117Z,28.03
2018-07-03T12:14:45.109Z,28.02
2018-07-03T12:15:45.096Z,28.13
2018-07-03T12:16:45.111Z,28.23
2018-07-03T12:17:45.030Z,28.15
2018-07-03T12:18:46.097Z,28.14
2018-07-03T12:19:45.037Z,28.25
2018-07-03T12:21:36.424Z,28.27
2018-07-03T12:22:36.300Z,28.24
2018-07-03T12:23:36.287Z,28.40
2018-07-03T12:24:36.248Z,28.51
2018-07-03T12:25:36.216Z,28.57
2018-07-03T12:26:36.234Z,28.70
2018-07-03T12:27:36.179Z,28.91
2018-07-03T12:28:36.157Z,28.82
2018-07-03T12:29:36.134Z,28.65
2018-07-03T12:30:36.120Z,28.64
2018-07-03T12:31:36.096Z,28.51
2018-07-03T12:32:38.089Z,28.48
2018-07-03T12:33:36.060Z,28.50
2018-07-03T12:34:36.047Z,28.77
2018-07-03T12:35:36.013Z,28.74
2018-07-03T12:36:37.030Z,28.85
2018-07-03T12:37:35.966Z,29.03
2018-07-03T12:38:35.960Z,29.15
2018-07-03T12:39:35.937Z,29.29
2018-07-03T12:40:35.978Z,29.39
2018-07-03T12:41:35.885Z,29.47
2018-07-03T12:42:37.938Z,29.58
2018-07-03T12:43:35.852Z,29.55
2018-07-03T12:44:36.928Z,29.49
2018-07-03T12:45:35.804Z,29.52
2018-07-03T12:46:36.839Z,29.48
2018-07-03T12:47:35.760Z,29.51
2018-07-03T12:48:36.865Z,29.71
2018-07-03T12:49:35.713Z,29.48
2018-07-03T12:50:35.740Z,29.39
2018-07-03T12:51:35.681Z,29.07
2018-07-03T12:52:36.676Z,29.05
2018-07-03T12:53:35.633Z,29.17
2018-07-03T12:54:35.673Z,29.35
2018-07-03T12:55:35.604Z,29.35
2018-07-03T12:56:35.685Z,29.45
2018-07-03T12:57:35.559Z,29.42
2018-07-03T12:58:35.589Z,29.39
2018-07-03T12:59:35.508Z,29.27
2018-07-03T13:00:35.634Z,29.02
2018-07-03T13:01:35.544Z,29.02
2018-07-03T13:02:36.572Z,28.91
2018-07-03T13:03:35.448Z,28.89
2018-07-03T13:04:37.478Z,28.82